Aviation Digital Data Service (ADDS)

Output produced by METARs form (0359 UTC 23 September 2017)
found at http://www.aviationweather.gov/adds/metars/
 
KDLH 230355Z 17010KT 10SM CLR 21/18 A2981 RMK AO2 SLP091 T02110183